Latest Weather Observations for Wynyard

IDT60801

Issued at 7:31 pm EST Friday 22 May 2015 (issued every 30 minutes, with the page automatically refreshed every 10 minutes)

About weather observations | Map of weather stations | Latest weather observations for TAS | Other Formats
Station Details ID: 091107 Name: WYNYARD AIRPORT Lat: -41.00 Lon: 145.73 Height: 12.0 m
Data from the previous 72 hours. | See also: Recent months at Wynyard
Date/Time
EST
Temp
°C
App
Temp
°C
Dew
Point
Rel
Hum
%
Delta-T
°C
Wind Press
QNH
hPa
Press
MSL
hPa
Rain
since 9 am
mm
Dir
 
Spd
km/h
Gust
km/h
Spd
kts
Gust
kts
22/07:30pm 4.3 1.2 3.6 95 0.3 W 9 11 5 6 1029.6 1029.6 0.0
22/07:00pm 4.6 0.6 3.1 90 0.6 WSW 13 15 7 8 1029.2 1029.2 0.0
22/06:30pm 4.6 0.0 3.6 93 0.4 WSW 17 17 9 9 1029.0 1029.0 0.0
22/06:00pm 7.3 3.6 4.6 83 1.2 SW 13 17 7 9 1028.9 1028.9 0.0
22/05:30pm 8.0 3.5 4.4 78 1.6 SW 17 22 9 12 1028.6 1028.6 0.0
22/05:00pm 8.7 4.6 4.3 74 1.9 SW 15 20 8 11 1028.4 1028.4 0.0
22/04:30pm 10.4 5.6 4.5 67 2.6 SSW 19 26 10 14 1028.2 1028.2 0.0
22/04:00pm 11.0 6.6 4.5 64 2.9 SW 17 28 9 15 1028.2 1028.2 0.0
22/03:30pm 11.4 6.6 4.8 64 3.0 SW 19 32 10 17 1027.8 1027.8 0.0
22/03:00pm 11.5 4.5 4.3 61 3.2 SW 30 43 16 23 1027.7 1027.7 0.0
22/02:30pm 11.6 5.7 4.1 60 3.4 SSW 24 33 13 18 1027.6 1027.6 0.0
22/02:00pm 12.0 5.9 5.0 62 3.2 SSW 26 41 14 22 1027.7 1027.7 0.0
22/01:30pm 12.2 7.9 5.1 62 3.3 S 17 26 9 14 1027.8 1027.8 0.0
22/01:00pm 11.6 5.8 4.3 61 3.3 S 24 35 13 19 1028.0 1028.0 0.0
22/12:30pm 12.2 7.8 4.9 61 3.3 SSW 17 24 9 13 1028.2 1028.2 0.0
22/12:00pm 12.1 6.6 5.7 65 3.0 SSW 24 35 13 19 1028.6 1028.6 0.0
22/11:30am 11.2 6.2 4.4 63 3.1 SSW 20 33 11 18 1028.9 1028.9 0.0
22/11:00am 11.1 5.7 4.6 64 2.9 SSW 22 30 12 16 1029.4 1029.4 0.0
22/10:30am 11.0 6.1 5.1 67 2.7 SSW 20 32 11 17 1029.4 1029.4 0.0
22/10:00am 10.2 7.1 5.4 72 2.2 W 11 15 6 8 1029.4 1029.4 0.0
22/09:30am 9.4 6.2 5.0 74 2.0 W 11 15 6 8 1029.4 1029.4 0.0
22/09:00am 8.5 5.6 4.9 78 1.6 WSW 9 13 5 7 1029.5 1029.5 0.0
22/08:30am 7.3 3.7 5.1 86 1.0 SW 13 19 7 10 1029.6 1029.6 0.0
22/08:00am 4.8 1.0 3.8 93 0.4 W 13 15 7 8 1029.4 1029.4 0.0
22/07:30am 5.3 1.3 2.7 83 1.1 SW 13 17 7 9 1029.3 1029.3 0.0
22/07:00am 6.8 2.1 3.4 79 1.4 SW 17 22 9 12 1029.0 1029.0 0.0
22/06:30am 7.4 2.6 4.4 81 1.3 SSW 19 28 10 15 1028.8 1028.8 0.0
22/06:00am 6.4 3.7 5.5 94 0.4 W 9 13 5 7 1028.5 1028.5 0.0
22/05:30am 6.0 3.4 5.9 99 0.0 NW 9 11 5 6 1028.3 1028.3 0.0
22/05:00am 5.1 2.3 5.0 99 0.0 W 9 13 5 7 1028.3 1028.3 0.0
22/04:30am 5.9 3.6 4.9 93 0.4 WSW 6 7 3 4 1028.2 1028.2 0.0
22/04:00am 6.7 4.5 6.3 97 0.2 SSW 7 9 4 5 1028.1 1028.1 0.0
22/03:30am 6.0 3.9 5.9 99 0.0 S 6 9 3 5 1028.2 1028.2 0.0
22/03:00am 6.8 4.3 6.7 99 0.0 SSW 9 11 5 6 1028.4 1028.4 0.0
22/02:30am 7.2 5.2 7.1 99 0.0 WSW 7 9 4 5 1028.3 1028.3 0.0
22/02:00am 7.1 5.6 7.0 99 0.0 SSW 4 7 2 4 1028.2 1028.2 0.0
22/01:30am 7.5 5.8 7.4 99 0.0 SSW 6 7 3 4 1028.2 1028.2 0.0
22/01:00am 7.7 7.1 7.6 99 0.0 CALM 0 2 0 1 1028.1 1028.1 0.0
22/12:30am 7.6 6.6 7.5 99 0.0 WNW 2 9 1 5 1028.2 1028.2 0.0
22/12:00am 7.4 4.7 7.3 99 0.0 WSW 11 13 6 7 1028.2 1028.2 0.0
 
Date/Time
EST
Temp
°C
App
Temp
°C
Dew
Point
Rel
Hum
%
Delta-T
°C
Wind Press
QNH
hPa
Press
MSL
hPa
Rain
since 9 am
mm
Dir
 
Spd
km/h
Gust
km/h
Spd
kts
Gust
kts
21/11:30pm 7.1 5.3 7.0 99 0.0 SW 6 7 3 4 1028.1 1028.1 0.0
21/11:00pm 7.9 6.3 7.8 99 0.0 SW 6 9 3 5 1028.2 1028.2 0.0
21/10:30pm 8.4 6.9 8.3 99 0.0 WSW 6 7 3 4 1028.1 1028.1 0.0
21/10:00pm 8.5 7.4 8.4 99 0.0 WNW 4 6 2 3 1028.1 1028.1 0.0
21/09:30pm 8.6 7.1 8.5 99 0.0 SW 6 7 3 4 1028.0 1028.0 0.0
21/09:00pm 8.7 7.1 8.6 99 0.0 WSW 7 9 4 5 1027.9 1027.9 0.0
21/08:30pm 8.7 7.1 8.6 99 0.0 W 7 9 4 5 1027.6 1027.6 0.0
21/08:00pm 8.7 6.7 8.6 99 0.0 W 9 9 5 5 1027.5 1027.5 0.0
21/07:30pm 8.6 6.6 8.5 99 0.0 W 9 9 5 5 1027.3 1027.3 0.0
21/07:00pm 8.1 5.9 8.0 99 0.0 SW 9 11 5 6 1027.1 1027.1 0.0
21/06:30pm 7.3 5.3 7.2 99 0.0 SW 7 11 4 6 1026.8 1026.8 0.0
21/06:00pm 5.9 3.6 5.5 97 0.2 SW 7 9 4 5 1026.6 1026.6 0.0
21/05:30pm 7.4 5.3 6.8 96 0.3 SW 7 9 4 5 1026.1 1026.1 0.0
21/05:00pm 8.8 8.1 7.1 89 0.8 CALM 0 0 0 0 1025.7 1025.7 0.0
21/04:30pm 10.7 10.1 7.2 79 1.7 CALM 0 2 0 1 1025.4 1025.4 0.0
21/04:00pm 11.7 9.8 6.8 72 2.3 E 6 7 3 4 1025.1 1025.1 0.0
21/03:30pm 12.2 10.1 6.7 69 2.6 ENE 7 9 4 5 1024.8 1024.8 0.0
21/03:00pm 13.3 11.3 6.4 63 3.3 ENE 6 13 3 7 1024.6 1024.6 0.0
21/02:30pm 13.7 11.7 7.0 64 3.3 NE 7 13 4 7 1024.3 1024.3 0.0
21/02:00pm 13.4 10.9 6.5 63 3.3 ENE 9 13 5 7 1024.2 1024.2 0.0
21/01:30pm 13.2 11.0 6.3 63 3.3 ENE 7 11 4 6 1024.1 1024.1 0.0
21/01:00pm 13.2 10.7 6.5 64 3.2 E 9 13 5 7 1024.2 1024.2 0.0
21/12:30pm 13.0 10.3 7.2 68 2.8 ENE 11 13 6 7 1024.2 1024.2 0.0
21/12:00pm 12.4 9.1 6.2 66 2.9 NE 13 17 7 9 1024.3 1024.3 0.0
21/11:30am 12.4 9.7 5.6 63 3.2 NE 9 13 5 7 1024.4 1024.4 0.0
21/11:00am 12.4 10.0 5.1 61 3.3 ENE 7 11 4 6 1024.4 1024.4 0.0
21/10:30am 12.9 10.6 5.8 62 3.3 E 7 11 4 6 1024.3 1024.3 0.0
21/10:00am 12.6 11.7 6.0 64 3.1 CALM 0 0 0 0 1023.9 1023.9 0.0
21/09:30am 10.8 8.5 5.8 71 2.3 S 7 11 4 6 1023.6 1023.6 0.0
21/09:00am 9.3 6.4 4.5 72 2.1 SW 9 11 5 6 1023.3 1023.3 0.6
21/08:30am 7.5 4.6 4.6 82 1.3 WSW 9 13 5 7 1022.9 1022.9 0.6
21/08:00am 6.0 2.5 3.3 83 1.1 SW 11 15 6 8 1022.6 1022.6 0.6
21/07:30am 6.8 3.7 3.6 80 1.4 SW 9 15 5 8 1022.1 1022.1 0.6
21/07:00am 7.2 4.1 3.4 77 1.6 SSW 9 13 5 7 1021.5 1021.5 0.6
21/06:30am 6.6 3.8 3.0 78 1.5 SW 7 11 4 6 1021.1 1021.1 0.6
21/06:00am 6.4 3.2 3.2 80 1.3 SSW 9 13 5 7 1020.6 1020.6 0.6
21/05:30am 7.0 4.2 3.1 76 1.6 SSW 7 11 4 6 1020.2 1020.2 0.6
21/05:00am 6.7 3.5 3.1 78 1.5 SW 9 13 5 7 1019.7 1019.7 0.6
21/04:30am 6.5 2.9 2.8 77 1.5 WSW 11 19 6 10 1019.3 1019.3 0.6
21/04:00am 7.4 2.3 2.9 73 1.9 SSW 19 30 10 16 1018.9 1018.9 0.6
21/03:30am 7.1 4.3 3.0 75 1.7 SW 7 15 4 8 1018.9 1018.9 0.6
21/03:00am 7.3 3.4 3.2 75 1.7 SSW 13 22 7 12 1018.8 1018.8 0.6
21/02:30am 7.6 3.0 3.5 75 1.7 SSW 17 28 9 15 1018.6 1018.6 0.6
21/02:00am 7.5 2.9 3.7 77 1.6 SSW 17 24 9 13 1018.3 1018.3 0.6
21/01:30am 7.6 2.1 4.2 79 1.5 SSW 22 33 12 18 1017.8 1017.8 0.6
21/01:00am 7.4 2.9 4.4 81 1.3 SSW 17 28 9 15 1017.8 1017.8 0.6
21/12:30am 7.7 2.7 4.5 80 1.4 SSW 20 32 11 17 1017.8 1017.8 0.6
21/12:00am 7.8 2.0 4.6 80 1.4 SSW 24 39 13 21 1017.5 1017.5 0.6
 
Date/Time
EST
Temp
°C
App
Temp
°C
Dew
Point
Rel
Hum
%
Delta-T
°C
Wind Press
QNH
hPa
Press
MSL
hPa
Rain
since 9 am
mm
Dir
 
Spd
km/h
Gust
km/h
Spd
kts
Gust
kts
20/11:30pm 7.7 3.3 4.7 81 1.3 SSW 17 30 9 16 1017.4 1017.4 0.6
20/11:00pm 7.8 3.4 4.9 82 1.3 SSW 17 26 9 14 1017.2 1017.2 0.6
20/10:30pm 8.2 3.4 5.5 83 1.2 S 20 32 11 17 1017.0 1017.0 0.6
20/10:00pm 8.5 4.7 6.0 84 1.1 SSW 15 22 8 12 1016.6 1016.7 0.6
20/09:30pm 8.9 4.8 6.2 83 1.2 S 17 28 9 15 1016.4 1016.5 0.6
20/09:00pm 9.1 4.7 6.5 84 1.2 SSW 19 28 10 15 1015.8 1015.9 0.6
20/08:30pm 9.2 5.7 7.0 86 1.0 SSW 15 26 8 14 1015.3 1015.4 0.6
20/08:00pm 9.7 6.3 7.5 86 1.0 SSW 15 20 8 11 1014.7 1014.8 0.6
20/07:30pm 10.2 7.3 8.1 87 1.0 SW 13 17 7 9 1014.3 1014.4 0.6
20/07:00pm 11.0 8.6 8.6 85 1.2 SSW 11 17 6 9 1013.7 1013.8 0.6
20/06:30pm 11.6 9.3 9.0 84 1.3 SSW 11 17 6 9 1013.2 1013.3 0.6
20/06:00pm 12.0 9.4 9.2 83 1.4 S 13 19 7 10 1012.8 1012.9 0.6
20/05:30pm 12.8 9.6 9.8 82 1.5 S 17 22 9 12 1012.5 1012.6 0.6
20/05:00pm 13.6 10.7 10.9 84 1.4 S 17 20 9 11 1012.1 1012.2 0.6
20/04:30pm 13.5 14.5 13.3 99 0.1 CALM 0 4 0 2 1011.5 1011.6 0.6
20/04:00pm 13.7 13.5 13.5 99 0.1 SW 7 9 4 5 1011.1 1011.2 0.6
20/03:30pm 13.9 13.2 13.1 95 0.4 WSW 9 11 5 6 1010.6 1010.7 0.6
20/03:00pm 14.1 13.6 12.5 90 0.9 W 7 9 4 5 1010.2 1010.3 0.6
20/02:30pm 13.7 13.7 12.3 91 0.8 NNW 4 7 2 4 1010.1 1010.2 0.6
20/02:00pm 13.5 12.8 13.3 99 0.1 WNW 9 11 5 6 1009.9 1010.0 0.6
20/01:30pm 12.8 12.3 12.6 99 0.1 SW 7 9 4 5 1009.7 1009.8 0.6
20/01:00pm 12.1 11.4 11.9 99 0.1 SW 7 9 4 5 1009.7 1009.8 0.6
20/12:30pm 12.0 11.4 11.8 99 0.1 N 6 9 3 5 1009.7 1009.8 0.6
20/12:00pm 11.9 11.3 11.7 99 0.1 SSW 6 7 3 4 1009.6 1009.7 0.6
20/11:30am 11.7 11.4 11.5 99 0.1 SW 4 6 2 3 1009.7 1009.8 0.6
20/11:00am 11.4 10.6 11.1 98 0.2 SSE 6 9 3 5 1009.6 1009.7 0.6
20/10:30am 11.1 9.7 10.9 99 0.1 SSE 9 13 5 7 1009.4 1009.5 0.6
20/10:25am 10.9 9.4 10.7 99 0.1 SSE 9 13 5 7 1009.3 1009.4 0.6
20/10:03am 10.7 9.6 10.7 100 0.0 SE 7 11 4 6 1009.3 1009.4 0.4
20/10:00am 10.7 9.6 10.7 100 0.0 ESE 7 11 4 6 1009.3 1009.4 0.4
20/09:30am 10.4 9.4 10.4 100 0.0 S 6 7 3 4 1009.1 1009.2 0.0
20/09:00am 9.6 8.4 9.6 100 0.0 SW 6 7 3 4 1008.8 1008.9 10.6
20/08:30am 9.1 7.8 9.1 100 0.0 SW 6 7 3 4 1008.5 1008.6 10.4
20/08:00am 8.8 8.2 8.8 100 0.0 WSW 2 7 1 4 1008.2 1008.3 10.4
20/07:30am 8.7 7.1 8.7 100 0.0 NW 7 9 4 5 1007.8 1007.8 10.4
20/07:00am 8.6 7.1 8.6 100 0.0 WSW 6 7 3 4 1007.5 1007.5 10.4
20/06:30am 8.4 6.3 8.4 100 0.0 SW 9 13 5 7 1007.4 1007.4 10.4
20/06:00am 8.2 6.5 8.2 100 0.0 WSW 7 9 4 5 1007.2 1007.2 10.4
20/05:30am 8.1 5.6 8.1 100 0.0 W 11 13 6 7 1007.1 1007.1 10.4
20/05:00am 7.6 5.3 7.6 100 0.0 W 9 13 5 7 1007.0 1007.0 10.4
20/04:54am 7.9 5.7 7.9 100 0.0 WSW 9 13 5 7 1007.1 1007.1 10.4
20/04:31am 7.1 5.7 7.1 100 0.0 SSW 4 7 2 4 1006.9 1006.9 10.4
20/04:30am 7.0 5.5 7.0 100 0.0 SW 4 7 2 4 1006.9 1006.9 10.4
20/04:00am 7.1 4.7 7.1 100 0.0 SW 9 13 5 7 1007.1 1007.1 10.4
20/03:53am 7.0 4.6 7.0 100 0.0 SW 9 11 5 6 1007.2 1007.2 10.4
20/03:30am 7.0 4.6 7.0 100 0.0 W 9 11 5 6 1007.3 1007.3 10.4
20/03:00am 7.3 5.0 7.3 100 0.0 WSW 9 11 5 6 1007.2 1007.2 10.4
20/02:30am 7.2 5.2 7.2 100 0.0 SW 7 9 4 5 1007.4 1007.4 10.2
20/02:00am 6.7 4.2 6.6 99 0.0 W 9 11 5 6 1007.2 1007.2 10.2
20/01:30am 7.3 6.7 7.2 99 0.0 CALM 0 0 0 0 1006.9 1006.9 10.2
20/01:00am 7.8 5.6 7.7 99 0.0 WNW 9 11 5 6 1007.0 1007.0 10.2
20/12:30am 9.4 8.2 9.4 100 0.0 SW 6 6 3 3 1007.0 1007.0 10.2
20/12:00am 8.7 6.3 8.7 100 0.0 SW 11 13 6 7 1006.9 1006.9 10.2
 
Date/Time
EST
Temp
°C
App
Temp
°C
Dew
Point
Rel
Hum
%
Delta-T
°C
Wind Press
QNH
hPa
Press
MSL
hPa
Rain
since 9 am
mm
Dir
 
Spd
km/h
Gust
km/h
Spd
kts
Gust
kts
19/11:30pm 9.6 8.4 9.6 100 0.0 WSW 6 7 3 4 1006.9 1006.9 10.2
19/11:00pm 8.5 8.1 8.4 99 0.0 CALM 0 0 0 0 1006.8 1006.8 10.2
19/10:30pm 9.7 8.3 9.6 99 0.0 SW 7 11 4 6 1006.8 1006.8 10.2
19/10:28pm 10.7 9.6 10.5 99 0.1 SW 7 9 4 5 1006.8 1006.8 10.2
19/10:00pm 11.9 11.3 11.7 99 0.1 SSW 6 9 3 5 1006.9 1006.9 10.2
19/09:30pm 12.4 12.3 12.2 99 0.1 SW 4 7 2 4 1006.8 1006.8 10.2
19/09:00pm 13.0 11.0 12.8 99 0.1 W 15 19 8 10 1006.7 1006.7 10.2
19/08:31pm 13.1 11.2 12.9 99 0.1 W 15 19 8 10 1006.5 1006.5 10.2
19/08:30pm 13.1 11.2 12.9 99 0.1 W 15 19 8 10 1006.5 1006.5 10.2
19/08:00pm 13.3 11.8 13.1 99 0.1 W 13 17 7 9 1006.3 1006.3 10.2
19/07:41pm 13.2 12.1 13.0 99 0.1 WNW 11 15 6 8 1006.0 1006.0 10.2

Other Formats:

Comma delimited format used in spreadsheet applications
http://www.bom.gov.au/fwo/IDT60801/IDT60801.95957.axf

JavaScript Object Notation format (JSON) in row-major order
http://www.bom.gov.au/fwo/IDT60801/IDT60801.95957.json